Guarapari, Brazil
Current Conditions -  °F | °C
As of 5:00 PM on Monday 20 Oct 2014 (Local Time) from SBVT Reporting Station
Clear Clear  
Wind Chill: 82°   Ceiling: Unl
Heat Index: 86°   Visibility: 6mi
Dew Point: 70°   Wind: 9mph
Humidity: 66%   Direction: 60°ENE
Pressure: 29.83"   Gusts: NA
Location:  20.66°S, 40.5°W
Report Text: SBVT 202000Z 06008KT 9000 NSC 28/21 Q1010
Loading
Personal Weather Stations






























Interactive Weather Map
Tropical Storm Tracking
New forecast layout! Learn more

10-Day Weather Forecast

Advertisements
Track Severe Weather on mobile